createdAt,value
2023-02-13T00:00:46.104Z,53.11
2023-02-13T00:03:14.690Z,52.32
2023-02-13T00:05:42.596Z,52.42
2023-02-13T00:08:10.370Z,52.26
2023-02-13T00:10:38.213Z,52.10
2023-02-13T00:13:06.215Z,52.10
2023-02-13T00:15:34.675Z,52.22
2023-02-13T00:18:03.143Z,52.26
2023-02-13T00:20:31.232Z,52.35
2023-02-13T00:23:00.042Z,52.51
2023-02-13T00:25:28.230Z,51.92
2023-02-13T00:27:56.035Z,52.17
2023-02-13T00:30:24.234Z,52.19
2023-02-13T00:32:52.742Z,52.15
2023-02-13T00:35:22.117Z,52.24
2023-02-13T00:37:50.373Z,52.29
2023-02-13T00:40:18.206Z,52.35
2023-02-13T00:42:46.030Z,52.17
2023-02-13T00:45:14.123Z,52.49
2023-02-13T00:47:42.046Z,52.09
2023-02-13T00:50:10.466Z,52.33
2023-02-13T00:52:38.139Z,52.66
2023-02-13T00:55:06.392Z,52.69
2023-02-13T00:57:34.563Z,51.99
2023-02-13T01:00:02.625Z,52.34
2023-02-13T01:02:30.868Z,53.03
2023-02-13T01:04:59.044Z,52.99
2023-02-13T01:07:26.818Z,52.74
2023-02-13T01:09:54.750Z,53.11
2023-02-13T01:12:22.629Z,52.84
2023-02-13T01:14:50.782Z,53.31
2023-02-13T01:17:19.161Z,52.79
2023-02-13T01:19:47.315Z,53.10
2023-02-13T01:22:16.548Z,53.37
2023-02-13T01:24:44.902Z,53.46
2023-02-13T01:27:13.110Z,53.13
2023-02-13T01:29:41.156Z,53.26
2023-02-13T01:32:09.563Z,53.57
2023-02-13T01:34:37.668Z,53.32
2023-02-13T01:37:08.785Z,54.11
2023-02-13T01:39:36.878Z,54.27
2023-02-13T01:42:04.893Z,53.69
2023-02-13T01:44:52.689Z,53.69
2023-02-13T01:47:44.598Z,54.07
2023-02-13T01:50:13.387Z,54.48
2023-02-13T01:52:43.568Z,53.38
2023-02-13T01:55:11.656Z,53.35
2023-02-13T01:57:40.304Z,53.99
2023-02-13T02:00:10.342Z,53.13
2023-02-13T02:02:53.334Z,52.92
2023-02-13T02:05:25.575Z,53.00
2023-02-13T02:07:54.008Z,53.58
2023-02-13T02:10:24.040Z,53.31
2023-02-13T02:13:14.986Z,53.23
2023-02-13T02:15:43.463Z,52.62
2023-02-13T02:18:29.678Z,52.32
2023-02-13T02:21:10.014Z,52.47
2023-02-13T02:24:36.568Z,52.32
2023-02-13T02:27:25.863Z,52.31
2023-02-13T02:30:40.985Z,51.75
2023-02-13T02:33:31.428Z,52.20
2023-02-13T02:36:19.125Z,51.85
2023-02-13T02:39:13.096Z,52.53
2023-02-13T02:41:49.740Z,52.16
2023-02-13T02:44:43.886Z,51.83
2023-02-13T02:47:39.481Z,52.37
2023-02-13T02:50:25.299Z,51.85
2023-02-13T02:53:16.173Z,52.62
2023-02-13T02:56:17.385Z,52.34
2023-02-13T02:59:16.029Z,52.28
2023-02-13T03:02:02.150Z,52.26
2023-02-13T03:05:08.757Z,52.69
2023-02-13T03:07:36.627Z,51.76
2023-02-13T03:10:28.230Z,51.56
2023-02-13T03:13:23.864Z,51.17
2023-02-13T03:16:12.460Z,51.53
2023-02-13T03:19:00.356Z,50.95
2023-02-13T03:22:14.507Z,50.29
2023-02-13T03:25:01.073Z,50.11
2023-02-13T03:28:06.098Z,49.74
2023-02-13T03:31:12.611Z,49.31
2023-02-13T03:33:46.585Z,49.24
2023-02-13T03:36:38.753Z,49.00
2023-02-13T03:39:14.562Z,48.45
2023-02-13T03:42:00.875Z,48.34
2023-02-13T03:44:46.200Z,47.79
2023-02-13T03:47:14.517Z,47.75
2023-02-13T03:50:06.719Z,47.09
2023-02-13T03:52:46.976Z,47.24
2023-02-13T03:55:44.655Z,47.00
2023-02-13T03:58:49.042Z,46.86
2023-02-13T04:01:18.412Z,46.54
2023-02-13T04:03:54.607Z,46.53
2023-02-13T04:06:28.191Z,45.82
2023-02-13T04:08:56.227Z,45.49
2023-02-13T04:11:37.187Z,45.88
2023-02-13T04:14:08.677Z,45.13
2023-02-13T04:16:38.229Z,44.93
2023-02-13T04:19:06.863Z,44.75
2023-02-13T04:21:35.270Z,44.00
2023-02-13T04:24:03.577Z,43.97
2023-02-13T04:26:39.748Z,43.21
2023-02-13T04:29:07.772Z,43.26
2023-02-13T04:31:36.296Z,43.78
2023-02-13T04:34:04.250Z,43.54
2023-02-13T04:36:32.101Z,44.37
2023-02-13T04:39:00.465Z,43.85
2023-02-13T04:41:28.397Z,43.55
2023-02-13T04:43:56.239Z,43.42
2023-02-13T04:46:24.787Z,43.47
2023-02-13T04:48:52.998Z,43.58
2023-02-13T04:51:20.811Z,43.29
2023-02-13T04:53:48.813Z,42.86
2023-02-13T04:56:18.041Z,43.26
2023-02-13T04:58:47.581Z,42.78
2023-02-13T05:01:16.082Z,43.42
2023-02-13T05:03:44.160Z,43.09
2023-02-13T05:06:12.044Z,43.75
2023-02-13T05:08:40.060Z,43.53
2023-02-13T05:11:08.481Z,44.05
2023-02-13T05:13:36.462Z,44.54
2023-02-13T05:16:04.785Z,44.32
2023-02-13T05:18:32.969Z,44.55
2023-02-13T05:21:18.960Z,44.48
2023-02-13T05:23:46.847Z,44.12
2023-02-13T05:26:14.760Z,43.82
2023-02-13T05:29:01.085Z,44.00
2023-02-13T05:31:29.327Z,44.29
2023-02-13T05:33:57.597Z,44.32
2023-02-13T05:36:25.408Z,44.55
2023-02-13T05:38:53.798Z,44.10
2023-02-13T05:41:21.570Z,44.38
2023-02-13T05:43:49.683Z,44.81
2023-02-13T05:46:18.832Z,45.21
2023-02-13T05:48:46.580Z,44.67
2023-02-13T05:51:14.560Z,44.92
2023-02-13T05:53:42.283Z,45.10
2023-02-13T05:56:10.636Z,44.33
2023-02-13T05:58:38.543Z,44.43
2023-02-13T06:01:06.716Z,43.88
2023-02-13T06:03:35.274Z,43.80
2023-02-13T06:06:03.122Z,43.65
2023-02-13T06:08:31.173Z,43.69
2023-02-13T06:10:59.695Z,43.29
2023-02-13T06:13:28.000Z,43.02
2023-02-13T06:15:56.274Z,43.48
2023-02-13T06:18:24.660Z,43.42
2023-02-13T06:20:52.498Z,43.63
2023-02-13T06:23:20.560Z,42.89
2023-02-13T06:25:50.152Z,42.58
2023-02-13T06:28:18.530Z,42.52
2023-02-13T06:30:47.124Z,41.97
2023-02-13T06:33:15.508Z,41.59
2023-02-13T06:35:43.659Z,41.69
2023-02-13T06:38:11.926Z,41.39
2023-02-13T06:40:39.972Z,40.39
2023-02-13T06:43:07.988Z,40.70
2023-02-13T06:45:36.104Z,40.43
2023-02-13T06:48:04.254Z,39.98
2023-02-13T06:50:32.070Z,40.19
2023-02-13T06:53:00.399Z,39.70
2023-02-13T06:55:28.842Z,39.15
2023-02-13T06:57:56.734Z,39.52
2023-02-13T07:00:27.018Z,39.16
2023-02-13T07:02:55.259Z,38.60
2023-02-13T07:05:23.214Z,39.02
2023-02-13T07:07:50.965Z,38.93
2023-02-13T07:10:18.929Z,38.95
2023-02-13T07:12:56.813Z,39.49
2023-02-13T07:15:32.752Z,39.20
2023-02-13T07:18:00.762Z,39.39
2023-02-13T07:20:29.395Z,39.46
2023-02-13T07:23:04.741Z,39.88
2023-02-13T07:25:33.093Z,39.47
2023-02-13T07:28:05.050Z,39.43
2023-02-13T07:30:33.487Z,40.04
2023-02-13T07:33:05.155Z,40.20
2023-02-13T07:35:33.645Z,40.09
2023-02-13T07:38:02.026Z,40.84
2023-02-13T07:40:30.132Z,40.80
2023-02-13T07:43:00.961Z,41.17
2023-02-13T07:45:29.187Z,42.04
2023-02-13T07:47:57.194Z,41.54
2023-02-13T07:50:25.181Z,41.58
2023-02-13T07:52:59.872Z,41.46
2023-02-13T07:55:29.297Z,41.16
2023-02-13T07:57:57.170Z,40.89
2023-02-13T08:00:25.369Z,40.84
2023-02-13T08:02:53.509Z,40.40
2023-02-13T08:05:21.327Z,40.40
2023-02-13T08:07:49.108Z,40.24
2023-02-13T08:10:35.142Z,40.45
2023-02-13T08:13:02.990Z,40.16
2023-02-13T08:15:30.994Z,40.13
2023-02-13T08:18:00.051Z,39.76
2023-02-13T08:20:28.229Z,39.56
2023-02-13T08:23:10.290Z,39.14
2023-02-13T08:25:39.084Z,39.60
2023-02-13T08:28:07.235Z,39.36
2023-02-13T08:30:35.572Z,39.51
2023-02-13T08:33:03.615Z,38.99
2023-02-13T08:35:32.072Z,39.58
2023-02-13T08:38:04.746Z,40.27
2023-02-13T08:40:33.006Z,39.92
2023-02-13T08:43:04.940Z,41.00
2023-02-13T08:45:33.349Z,41.66
2023-02-13T08:48:01.460Z,41.76
2023-02-13T08:50:29.831Z,42.31
2023-02-13T08:52:59.043Z,42.34
2023-02-13T08:55:27.950Z,42.43
2023-02-13T08:57:55.651Z,42.66
2023-02-13T09:00:23.892Z,43.18
2023-02-13T09:02:52.048Z,42.77
2023-02-13T09:05:20.085Z,42.94
2023-02-13T09:07:48.201Z,42.77
2023-02-13T09:10:16.037Z,42.15
2023-02-13T09:12:44.184Z,42.87
2023-02-13T09:15:12.239Z,42.45
2023-02-13T09:17:40.190Z,42.74
2023-02-13T09:20:08.769Z,42.74
2023-02-13T09:22:36.919Z,42.25
2023-02-13T09:25:05.667Z,41.93
2023-02-13T09:27:34.278Z,41.99
2023-02-13T09:30:02.166Z,41.93
2023-02-13T09:32:30.307Z,41.87
2023-02-13T09:34:58.366Z,41.26
2023-02-13T09:37:27.480Z,41.64
2023-02-13T09:39:55.181Z,41.82
2023-02-13T09:42:32.185Z,42.33
2023-02-13T09:45:01.927Z,42.34
2023-02-13T09:47:38.120Z,42.15
2023-02-13T09:50:13.762Z,42.50
2023-02-13T09:52:42.242Z,42.78
2023-02-13T09:55:18.326Z,42.77
2023-02-13T09:57:55.191Z,43.15
2023-02-13T10:00:40.683Z,43.91
2023-02-13T10:03:28.823Z,43.76
2023-02-13T10:06:07.096Z,45.17
2023-02-13T10:09:05.054Z,44.93
2023-02-13T10:12:06.982Z,44.77
2023-02-13T10:14:59.611Z,45.39
2023-02-13T10:17:32.919Z,46.19
2023-02-13T10:20:04.345Z,46.82
2023-02-13T10:22:36.705Z,46.47
2023-02-13T10:25:13.118Z,47.30
2023-02-13T10:27:46.298Z,47.58
2023-02-13T10:30:23.803Z,48.23
2023-02-13T10:33:21.000Z,47.59
2023-02-13T10:36:00.970Z,47.79
2023-02-13T10:38:36.367Z,47.91
2023-02-13T10:41:22.976Z,47.30
2023-02-13T10:44:09.166Z,47.15
2023-02-13T10:47:25.203Z,47.65
2023-02-13T10:50:14.948Z,47.57
2023-02-13T10:53:09.267Z,47.67
2023-02-13T10:55:55.791Z,48.00
2023-02-13T10:58:30.601Z,48.40
2023-02-13T11:01:13.756Z,48.10
2023-02-13T11:03:41.968Z,48.15
2023-02-13T11:06:12.500Z,48.01
2023-02-13T11:08:43.856Z,48.49
2023-02-13T11:11:31.865Z,48.12
2023-02-13T11:14:10.583Z,48.45
2023-02-13T11:16:41.273Z,47.88
2023-02-13T11:19:18.543Z,48.13
2023-02-13T11:21:47.410Z,47.51
2023-02-13T11:24:25.899Z,47.52
2023-02-13T11:26:59.047Z,47.87
2023-02-13T11:29:32.281Z,48.09
2023-02-13T11:32:13.297Z,48.17
2023-02-13T11:34:41.233Z,48.37
2023-02-13T11:37:24.511Z,48.53
2023-02-13T11:39:54.349Z,48.76
2023-02-13T11:42:33.236Z,48.85
2023-02-13T11:45:03.244Z,48.71
2023-02-13T11:47:32.445Z,49.23
2023-02-13T11:50:00.728Z,48.76
2023-02-13T11:52:35.771Z,47.98
2023-02-13T11:55:05.955Z,48.59
2023-02-13T11:57:37.592Z,47.63
2023-02-13T12:00:42.102Z,47.41
2023-02-13T12:03:22.678Z,47.64
2023-02-13T12:06:09.415Z,47.03
2023-02-13T12:08:38.357Z,47.19
2023-02-13T12:11:43.131Z,46.73
2023-02-13T12:14:14.095Z,46.74
2023-02-13T12:16:50.857Z,46.84
2023-02-13T12:19:22.682Z,46.96
2023-02-13T12:21:55.613Z,47.24
2023-02-13T12:24:30.409Z,47.57
2023-02-13T12:27:14.109Z,46.89
2023-02-13T12:30:11.255Z,47.14
2023-02-13T12:32:50.821Z,46.98
2023-02-13T12:36:00.108Z,47.47
2023-02-13T12:38:34.783Z,47.73
2023-02-13T12:41:32.103Z,47.70
2023-02-13T12:44:33.994Z,46.69
2023-02-13T12:47:11.986Z,47.30
2023-02-13T12:50:04.349Z,47.67
2023-02-13T12:52:37.632Z,47.87
2023-02-13T12:55:23.977Z,47.44
2023-02-13T12:58:17.545Z,47.85
2023-02-13T13:01:08.983Z,47.60
2023-02-13T13:04:00.126Z,47.73
2023-02-13T13:06:57.638Z,47.33
2023-02-13T13:10:01.889Z,48.09
2023-02-13T13:12:38.137Z,47.50
2023-02-13T13:15:41.313Z,47.72
2023-02-13T13:18:14.046Z,47.52
2023-02-13T13:20:56.862Z,47.45
2023-02-13T13:23:43.580Z,47.99
2023-02-13T13:26:36.530Z,47.66
2023-02-13T13:29:28.307Z,48.23
2023-02-13T13:32:07.049Z,46.87
2023-02-13T13:34:35.722Z,47.77
2023-02-13T13:37:14.460Z,47.66
2023-02-13T13:40:04.595Z,47.85
2023-02-13T13:42:42.775Z,47.98
2023-02-13T13:45:51.551Z,48.59
2023-02-13T13:48:33.956Z,48.10
2023-02-13T13:51:01.759Z,48.51
2023-02-13T13:53:29.893Z,48.11
2023-02-13T13:55:58.685Z,47.83
2023-02-13T13:58:35.412Z,48.87
2023-02-13T14:01:25.825Z,48.80
2023-02-13T14:03:58.625Z,48.02
2023-02-13T14:06:28.210Z,48.84
2023-02-13T14:08:58.739Z,48.82
2023-02-13T14:11:32.689Z,48.63
2023-02-13T14:14:01.224Z,48.70
2023-02-13T14:16:47.652Z,48.72
2023-02-13T14:19:34.768Z,48.50
2023-02-13T14:22:25.130Z,48.89
2023-02-13T14:24:53.373Z,48.41
2023-02-13T14:27:25.019Z,48.56
2023-02-13T14:29:53.175Z,48.85
2023-02-13T14:32:31.985Z,47.96
2023-02-13T14:35:26.660Z,48.36
2023-02-13T14:37:59.628Z,47.88
2023-02-13T14:40:44.405Z,48.02
2023-02-13T14:43:21.605Z,47.68
2023-02-13T14:46:06.109Z,48.07
2023-02-13T14:48:54.327Z,48.10
2023-02-13T14:51:35.527Z,48.36
2023-02-13T14:54:24.070Z,47.82
2023-02-13T14:56:52.819Z,48.24
2023-02-13T14:59:25.030Z,48.29
2023-02-13T15:02:10.299Z,48.13
2023-02-13T15:04:49.427Z,48.08
2023-02-13T15:07:23.813Z,47.99
2023-02-13T15:09:54.162Z,48.66
2023-02-13T15:12:35.859Z,48.62
2023-02-13T15:15:24.227Z,48.46
2023-02-13T15:17:59.118Z,48.46
2023-02-13T15:20:35.189Z,48.02
2023-02-13T15:23:03.284Z,48.98
2023-02-13T15:25:34.977Z,48.92
2023-02-13T15:28:04.299Z,48.82
2023-02-13T15:30:37.349Z,48.90
2023-02-13T15:33:27.191Z,49.30
2023-02-13T15:36:02.879Z,48.98
2023-02-13T15:38:36.825Z,49.21
2023-02-13T15:41:13.643Z,49.31
2023-02-13T15:43:44.306Z,49.36
2023-02-13T15:46:26.280Z,49.05
2023-02-13T15:48:54.898Z,49.04
2023-02-13T15:51:31.859Z,49.47
2023-02-13T15:54:01.352Z,49.59
2023-02-13T15:56:29.548Z,50.01
2023-02-13T15:58:58.165Z,49.73
2023-02-13T16:01:26.228Z,50.21
2023-02-13T16:04:07.659Z,49.53
2023-02-13T16:06:35.844Z,49.95
2023-02-13T16:09:04.205Z,50.03
2023-02-13T16:11:38.804Z,50.08
2023-02-13T16:14:16.134Z,49.91
2023-02-13T16:16:47.019Z,50.08
2023-02-13T16:19:29.313Z,49.73
2023-02-13T16:21:58.229Z,49.88
2023-02-13T16:24:26.754Z,49.58
2023-02-13T16:26:54.976Z,49.97
2023-02-13T16:29:24.342Z,49.79
2023-02-13T16:31:52.992Z,49.69
2023-02-13T16:34:26.788Z,49.87
2023-02-13T16:36:55.213Z,50.08
2023-02-13T16:39:33.456Z,49.40
2023-02-13T16:42:01.534Z,49.37
2023-02-13T16:44:33.530Z,49.24
2023-02-13T16:47:02.702Z,49.33
2023-02-13T16:49:37.220Z,49.33
2023-02-13T16:52:40.937Z,49.42
2023-02-13T16:55:15.440Z,48.89
2023-02-13T16:57:44.998Z,49.31
2023-02-13T17:00:23.151Z,49.16
2023-02-13T17:02:52.541Z,48.66
2023-02-13T17:05:25.975Z,49.60
2023-02-13T17:07:57.344Z,49.35
2023-02-13T17:10:36.249Z,49.48
2023-02-13T17:13:14.241Z,49.67
2023-02-13T17:15:44.643Z,49.18
2023-02-13T17:18:12.732Z,49.81
2023-02-13T17:20:44.518Z,49.35
2023-02-13T17:23:18.354Z,49.49
2023-02-13T17:25:49.978Z,49.46
2023-02-13T17:28:19.452Z,49.82
2023-02-13T17:30:48.293Z,49.69
2023-02-13T17:33:20.273Z,49.81
2023-02-13T17:35:48.276Z,50.06
2023-02-13T17:38:16.148Z,49.74
2023-02-13T17:40:44.350Z,50.37
2023-02-13T17:43:13.148Z,50.64
2023-02-13T17:45:41.387Z,50.31
2023-02-13T17:48:09.138Z,50.70
2023-02-13T17:50:37.257Z,50.51
2023-02-13T17:53:06.236Z,50.40
2023-02-13T17:55:34.616Z,51.01
2023-02-13T17:58:02.574Z,50.90
2023-02-13T18:00:31.786Z,50.61
2023-02-13T18:03:00.380Z,50.53
2023-02-13T18:05:28.961Z,50.21
2023-02-13T18:07:56.822Z,50.70
2023-02-13T18:10:28.181Z,50.56
2023-02-13T18:12:57.815Z,50.77
2023-02-13T18:15:25.887Z,50.46
2023-02-13T18:17:53.757Z,50.57
2023-02-13T18:20:21.813Z,50.63
2023-02-13T18:22:52.834Z,50.99
2023-02-13T18:25:21.247Z,50.30
2023-02-13T18:27:49.230Z,50.07
2023-02-13T18:30:18.754Z,50.55
2023-02-13T18:32:47.043Z,50.70
2023-02-13T18:35:15.243Z,50.42
2023-02-13T18:37:43.005Z,50.56
2023-02-13T18:40:11.321Z,50.05
2023-02-13T18:42:39.499Z,50.02
2023-02-13T18:45:07.735Z,50.41
2023-02-13T18:47:35.433Z,50.11
2023-02-13T18:50:03.557Z,50.03
2023-02-13T18:52:31.408Z,50.46
2023-02-13T18:54:59.162Z,50.46
2023-02-13T18:57:27.256Z,50.45
2023-02-13T18:59:55.101Z,51.09
2023-02-13T19:02:23.728Z,50.47
2023-02-13T19:04:51.512Z,51.13
2023-02-13T19:15:56.798Z,51.34
2023-02-13T19:18:25.038Z,52.16
2023-02-13T19:20:53.010Z,51.71
2023-02-13T19:23:21.058Z,51.17
2023-02-13T19:25:48.813Z,51.44
2023-02-13T19:28:16.582Z,52.37
2023-02-13T19:30:44.824Z,51.88
2023-02-13T19:33:12.551Z,52.24
2023-02-13T19:35:40.953Z,51.68
2023-02-13T19:38:08.976Z,51.83
2023-02-13T19:40:37.298Z,52.29
2023-02-13T19:43:05.436Z,52.29
2023-02-13T19:45:33.867Z,51.45
2023-02-13T19:48:02.280Z,51.53
2023-02-13T19:50:30.689Z,50.73
2023-02-13T19:52:58.703Z,51.35
2023-02-13T19:55:27.884Z,51.01
2023-02-13T19:57:55.732Z,50.63
2023-02-13T20:00:23.576Z,50.87
2023-02-13T20:02:51.357Z,50.56
2023-02-13T20:05:19.807Z,50.49
2023-02-13T20:07:47.949Z,50.30
2023-02-13T20:10:15.953Z,50.18
2023-02-13T20:12:44.045Z,50.53
2023-02-13T20:15:11.782Z,49.75
2023-02-13T20:17:39.987Z,50.92
2023-02-13T20:20:08.607Z,50.33
2023-02-13T20:22:36.275Z,50.76
2023-02-13T20:25:04.661Z,50.88
2023-02-13T20:27:32.750Z,51.40
2023-02-13T20:30:07.072Z,51.12
2023-02-13T20:32:36.104Z,51.08
2023-02-13T20:35:04.473Z,51.31
2023-02-13T20:37:32.764Z,51.06
2023-02-13T20:40:01.207Z,51.55
2023-02-13T20:42:28.922Z,51.77
2023-02-13T20:44:57.187Z,51.82
2023-02-13T20:47:25.058Z,51.67
2023-02-13T20:49:52.942Z,51.79
2023-02-13T20:52:21.206Z,52.20
2023-02-13T20:54:49.048Z,52.15
2023-02-13T20:57:17.069Z,52.36
2023-02-13T20:59:48.017Z,52.64
2023-02-13T21:02:16.786Z,53.05
2023-02-13T21:04:44.506Z,52.67
2023-02-13T21:07:12.895Z,53.10
2023-02-13T21:09:40.784Z,52.88
2023-02-13T21:12:08.616Z,52.94
2023-02-13T21:14:36.464Z,52.95
2023-02-13T21:17:04.233Z,52.77
2023-02-13T21:19:32.513Z,52.95
2023-02-13T21:22:12.564Z,53.12
2023-02-13T21:24:41.192Z,52.91
2023-02-13T21:27:09.412Z,53.29
2023-02-13T21:29:38.382Z,53.19
2023-02-13T21:32:06.966Z,54.34
2023-02-13T21:34:35.064Z,53.58
2023-02-13T21:37:02.833Z,54.15
2023-02-13T21:39:30.930Z,54.40
2023-02-13T21:41:59.046Z,54.53
2023-02-13T21:44:27.033Z,54.56
2023-02-13T21:46:54.904Z,55.28
2023-02-13T21:49:22.633Z,54.97
2023-02-13T21:51:50.652Z,54.97
2023-02-13T21:54:18.609Z,54.93
2023-02-13T21:56:46.720Z,55.37
2023-02-13T21:59:17.913Z,55.30
2023-02-13T22:01:47.485Z,55.86
2023-02-13T22:04:15.874Z,55.48
2023-02-13T22:06:44.347Z,55.60
2023-02-13T22:09:13.915Z,55.88
2023-02-13T22:11:42.071Z,55.84
2023-02-13T22:14:12.958Z,55.91
2023-02-13T22:16:42.852Z,55.33
2023-02-13T22:19:15.507Z,55.60
2023-02-13T22:21:43.431Z,56.03
2023-02-13T22:24:11.964Z,56.03
2023-02-13T22:26:40.778Z,55.80
2023-02-13T22:29:10.157Z,55.91
2023-02-13T22:31:38.384Z,55.66
2023-02-13T22:34:06.569Z,55.78
2023-02-13T22:36:36.059Z,55.56
2023-02-13T22:39:03.676Z,55.39
2023-02-13T22:41:31.620Z,55.85
2023-02-13T22:43:59.556Z,54.90
2023-02-13T22:46:30.397Z,54.79
2023-02-13T22:48:58.972Z,54.97
2023-02-13T22:51:32.243Z,54.61
2023-02-13T22:54:00.615Z,54.33
2023-02-13T22:56:28.916Z,54.84
2023-02-13T22:58:56.909Z,54.92
2023-02-13T23:01:26.105Z,55.00
2023-02-13T23:03:54.529Z,54.70
2023-02-13T23:06:22.969Z,54.63
2023-02-13T23:08:52.943Z,54.61
2023-02-13T23:11:41.521Z,54.44
2023-02-13T23:14:10.768Z,54.82
2023-02-13T23:17:00.422Z,54.68
2023-02-13T23:19:30.175Z,54.72
2023-02-13T23:21:58.455Z,54.48
2023-02-13T23:24:26.915Z,54.39
2023-02-13T23:26:55.045Z,54.99
2023-02-13T23:29:23.165Z,54.65
2023-02-13T23:31:51.360Z,54.73
2023-02-13T23:34:19.635Z,54.78
2023-02-13T23:36:47.578Z,54.47
2023-02-13T23:39:15.348Z,54.18
2023-02-13T23:41:43.379Z,54.62
2023-02-13T23:44:11.226Z,54.35
2023-02-13T23:46:39.457Z,54.09
2023-02-13T23:49:07.659Z,54.33
2023-02-13T23:51:35.600Z,54.24
2023-02-13T23:54:04.312Z,53.79
2023-02-13T23:56:32.116Z,53.35
2023-02-13T23:59:00.239Z,53.30
